Time;durP1;ratioP1;P1;durP2;ratioP2;P2;SDS_P1;SDS_P2;PMS_P1;PMS_P2;Temp;Humidity;BMP_temperature;BMP_pressure;BME280_temperature;BME280_humidity;BME280_pressure;Samples;Min_cycle;Max_cycle;Signal;HPM_P1;HPM_P2
2021/12/30 00:02:27;;;;;;;28.17;4.07;;;9.00;99.90;;;;;;5124302;27;38555;-64
2021/12/30 00:04:54;;;;;;;33.40;5.03;;;8.90;99.90;;;;;;5124389;27;36184;-65
2021/12/30 00:07:23;;;;;;;33.72;5.00;;;9.00;99.90;;;;;;5123840;27;37562;-65
2021/12/30 00:09:50;;;;;;;24.52;3.60;;;8.90;99.90;;;;;;5124341;27;37706;-65
2021/12/30 00:12:18;;;;;;;29.38;4.88;;;8.90;99.90;;;;;;5124028;27;37970;-65
2021/12/30 00:14:45;;;;;;;34.90;4.57;;;9.00;99.90;;;;;;5124587;27;37392;-65
2021/12/30 00:17:13;;;;;;;29.35;4.75;;;9.00;99.90;;;;;;5123751;27;38484;-65
2021/12/30 00:19:40;;;;;;;34.47;4.47;;;9.00;99.90;;;;;;5124532;27;38066;-65
2021/12/30 00:22:08;;;;;;;27.98;5.55;;;8.90;99.90;;;;;;5123509;27;38803;-65
2021/12/30 00:24:37;;;;;;;29.92;5.47;;;8.90;99.90;;;;;;5124961;27;36736;-65
2021/12/30 00:27:05;;;;;;;31.85;6.10;;;8.90;99.90;;;;;;5126224;27;37819;-64
2021/12/30 00:29:33;;;;;;;34.45;5.10;;;9.00;99.90;;;;;;5125512;27;36306;-64
2021/12/30 00:32:01;;;;;;;35.63;5.10;;;9.00;99.90;;;;;;5127859;27;39154;-64
2021/12/30 00:34:28;;;;;;;35.65;6.53;;;9.00;99.90;;;;;;5128063;27;36383;-64
2021/12/30 00:36:55;;;;;;;28.80;5.50;;;9.00;99.90;;;;;;5127668;27;37432;-65
2021/12/30 00:39:23;;;;;;;29.60;6.07;;;9.00;99.90;;;;;;5127387;27;38150;-65
2021/12/30 00:41:51;;;;;;;35.67;6.53;;;9.00;99.90;;;;;;5127901;27;36090;-66
2021/12/30 00:44:19;;;;;;;42.42;7.07;;;9.00;99.90;;;;;;5127326;27;35212;-65
2021/12/30 00:46:46;;;;;;;35.03;5.85;;;9.00;99.90;;;;;;5129668;27;37546;-65
2021/12/30 00:49:14;;;;;;;35.72;6.22;;;9.00;99.90;;;;;;5129986;27;37587;-65
2021/12/30 00:51:41;;;;;;;44.22;6.03;;;9.00;99.90;;;;;;5129642;27;38985;-65
2021/12/30 00:54:09;;;;;;;36.22;6.00;;;9.00;99.90;;;;;;5131113;27;37615;-65
2021/12/30 00:56:36;;;;;;;39.10;6.80;;;9.00;99.90;;;;;;5129348;27;38632;-65
2021/12/30 00:59:05;;;;;;;33.50;5.57;;;9.00;99.90;;;;;;5130724;27;36370;-65
2021/12/30 01:01:32;;;;;;;30.95;5.78;;;9.00;99.90;;;;;;5130004;27;36184;-65
2021/12/30 01:03:59;;;;;;;32.67;6.40;;;9.00;99.90;;;;;;5130848;27;38187;-65
2021/12/30 01:06:28;;;;;;;31.13;6.07;;;9.00;99.90;;;;;;5131088;27;37540;-65
2021/12/30 01:08:56;;;;;;;34.65;5.45;;;9.00;99.90;;;;;;5131503;27;38815;-65
2021/12/30 01:11:24;;;;;;;35.45;5.47;;;8.90;99.90;;;;;;5130640;27;37267;-65
2021/12/30 01:14:00;;;;;;;31.00;6.72;;;8.80;99.90;;;;;;5130532;27;35236;-66
2021/12/30 01:16:31;;;;;;;41.35;6.80;;;8.90;99.90;;;;;;5129934;27;37721;-65
2021/12/30 01:19:14;;;;;;;41.03;7.20;;;8.90;99.90;;;;;;5130674;27;38938;-65
2021/12/30 01:21:43;;;;;;;39.60;7.20;;;8.90;99.90;;;;;;5129927;27;36027;-65
2021/12/30 01:24:11;;;;;;;38.40;6.40;;;8.90;99.90;;;;;;5131065;27;37359;-65
2021/12/30 01:26:38;;;;;;;46.15;7.93;;;8.80;99.90;;;;;;5131130;27;36289;-65
2021/12/30 01:29:06;;;;;;;40.83;6.78;;;8.80;99.90;;;;;;5130742;27;37600;-65
2021/12/30 01:31:34;;;;;;;32.05;5.18;;;8.80;99.90;;;;;;5128253;27;38543;-65
2021/12/30 01:34:02;;;;;;;35.40;6.78;;;8.80;99.90;;;;;;5130245;27;37446;-65
2021/12/30 01:36:29;;;;;;;39.42;6.72;;;8.70;99.90;;;;;;5130695;27;38576;-65
2021/12/30 01:38:57;;;;;;;34.45;7.15;;;8.70;99.90;;;;;;5129671;27;37781;-65
2021/12/30 01:41:24;;;;;;;39.88;6.43;;;8.70;99.90;;;;;;5130824;27;38634;-65
2021/12/30 01:43:52;;;;;;;41.28;6.40;;;8.70;99.90;;;;;;5130906;27;38166;-65
2021/12/30 01:46:19;;;;;;;37.53;6.88;;;8.70;99.90;;;;;;5130046;27;36561;-65
2021/12/30 01:48:48;;;;;;;46.90;6.53;;;8.60;99.90;;;;;;5130577;27;39818;-65
2021/12/30 01:51:15;;;;;;;44.65;6.53;;;8.60;99.90;;;;;;5130980;27;37468;-65
2021/12/30 01:53:43;;;;;;;35.00;6.70;;;8.60;99.90;;;;;;5129071;27;36260;-65
2021/12/30 01:56:10;;;;;;;33.42;6.22;;;8.60;99.90;;;;;;5129586;27;39842;-65
2021/12/30 01:58:37;;;;;;;41.42;7.05;;;8.60;99.90;;;;;;5128850;27;38305;-65
2021/12/30 02:01:05;;;;;;;41.15;8.27;;;8.50;99.90;;;;;;5129597;27;38164;-65
2021/12/30 02:03:32;;;;;;;31.83;6.78;;;8.60;99.90;;;;;;5129997;27;37512;-65
2021/12/30 02:06:02;;;;;;;43.42;7.35;;;8.60;99.90;;;;;;5129334;27;37890;-65
2021/12/30 02:08:29;;;;;;;43.42;7.60;;;8.60;99.90;;;;;;5129920;27;38251;-64
2021/12/30 02:10:56;;;;;;;41.78;7.35;;;8.60;99.90;;;;;;5130106;27;37407;-64
2021/12/30 02:13:24;;;;;;;40.20;6.20;;;8.60;99.90;;;;;;5130220;27;36629;-64
2021/12/30 02:15:51;;;;;;;33.20;6.60;;;8.60;99.90;;;;;;5129137;27;39057;-64
2021/12/30 02:18:19;;;;;;;32.65;6.40;;;8.60;99.90;;;;;;5129497;27;37788;-64
2021/12/30 02:20:51;;;;;;;34.78;7.07;;;8.60;99.90;;;;;;5129930;27;36155;-64
2021/12/30 02:23:20;;;;;;;30.73;6.30;;;8.60;99.90;;;;;;5130672;27;35485;-64
2021/12/30 02:25:49;;;;;;;39.67;6.68;;;8.60;99.90;;;;;;5129479;27;37394;-64
2021/12/30 02:28:18;;;;;;;33.70;6.15;;;8.60;99.90;;;;;;5127353;27;40090;-64
2021/12/30 02:30:46;;;;;;;34.33;5.93;;;8.60;99.90;;;;;;5128356;27;37294;-64
2021/12/30 02:33:14;;;;;;;38.97;6.20;;;8.50;99.90;;;;;;5129271;27;36664;-64
2021/12/30 02:35:42;;;;;;;35.78;6.30;;;8.50;99.90;;;;;;5129870;27;37517;-64
2021/12/30 02:38:11;;;;;;;41.10;6.72;;;8.50;99.90;;;;;;5130156;27;36380;-64
2021/12/30 02:40:42;;;;;;;36.58;6.63;;;8.50;99.90;;;;;;5129801;27;37874;-64
2021/12/30 02:43:14;;;;;;;40.50;6.97;;;8.50;99.90;;;;;;5130135;27;35327;-64
2021/12/30 02:45:42;;;;;;;39.50;5.63;;;8.50;99.90;;;;;;5129828;27;37579;-64
2021/12/30 02:48:14;;;;;;;33.78;5.45;;;8.50;99.90;;;;;;5128962;27;36461;-64
2021/12/30 02:50:42;;;;;;;38.47;6.70;;;8.50;99.90;;;;;;5129761;27;38575;-65
2021/12/30 02:53:12;;;;;;;42.38;7.80;;;8.50;99.90;;;;;;5129024;27;36909;-65
2021/12/30 02:55:40;;;;;;;33.85;7.38;;;8.50;99.90;;;;;;5128499;27;37702;-64
2021/12/30 02:58:07;;;;;;;44.72;6.82;;;8.50;99.90;;;;;;5128664;27;37844;-64
2021/12/30 03:00:35;;;;;;;39.85;6.60;;;8.50;99.90;;;;;;5129539;27;36039;-64
2021/12/30 03:03:03;;;;;;;39.72;7.53;;;8.50;99.90;;;;;;5128506;27;36105;-64
2021/12/30 03:05:30;;;;;;;33.53;6.60;;;8.50;99.90;;;;;;5128795;27;37810;-64
2021/12/30 03:07:57;;;;;;;41.15;8.05;;;8.50;99.90;;;;;;5128589;27;37612;-64
2021/12/30 03:10:28;;;;;;;36.95;7.68;;;8.60;99.90;;;;;;5127920;27;38606;-64
2021/12/30 03:12:58;;;;;;;42.15;7.45;;;8.50;99.90;;;;;;5129257;27;37964;-64
2021/12/30 03:15:27;;;;;;;38.33;7.57;;;8.60;99.90;;;;;;5129266;27;36425;-64
2021/12/30 03:17:55;;;;;;;41.50;7.35;;;8.60;99.90;;;;;;5128827;27;38605;-64
2021/12/30 03:20:22;;;;;;;47.00;8.05;;;8.70;99.90;;;;;;5128587;27;36202;-64
2021/12/30 03:22:49;;;;;;;31.75;6.68;;;8.80;99.90;;;;;;5128800;27;36912;-65
2021/12/30 03:25:18;;;;;;;39.83;8.35;;;8.80;99.90;;;;;;5129553;27;38770;-64
2021/12/30 03:27:46;;;;;;;43.70;9.32;;;8.80;99.90;;;;;;5128759;27;37765;-64
2021/12/30 03:30:16;;;;;;;44.40;7.80;;;8.90;99.90;;;;;;5129665;27;37495;-64
2021/12/30 03:32:44;;;;;;;41.92;7.72;;;8.90;99.90;;;;;;5128229;27;36668;-64
2021/12/30 03:35:12;;;;;;;47.95;9.40;;;8.90;99.90;;;;;;5128231;27;37685;-64
2021/12/30 03:37:40;;;;;;;47.97;7.65;;;8.80;99.90;;;;;;5128860;27;37991;-64
2021/12/30 03:40:10;;;;;;;48.25;9.35;;;8.80;99.90;;;;;;5128834;27;36297;-64
2021/12/30 03:42:38;;;;;;;35.90;9.35;;;8.90;99.90;;;;;;5128486;27;36827;-64
2021/12/30 03:45:10;;;;;;;44.17;9.25;;;8.90;99.90;;;;;;5128572;27;37722;-64
2021/12/30 03:47:41;;;;;;;37.25;8.65;;;9.00;99.90;;;;;;5129645;27;38962;-64
2021/12/30 03:50:13;;;;;;;43.35;9.88;;;9.00;99.90;;;;;;5127220;27;37843;-64
2021/12/30 03:52:40;;;;;;;47.47;9.02;;;9.00;99.90;;;;;;5128541;27;37446;-64
2021/12/30 03:55:09;;;;;;;46.17;9.77;;;9.10;99.90;;;;;;5129105;27;37700;-64
2021/12/30 03:57:36;;;;;;;43.50;10.25;;;9.10;99.90;;;;;;5128140;27;37654;-64
2021/12/30 04:00:08;;;;;;;40.78;9.50;;;9.10;99.90;;;;;;5129314;27;20512;-64
2021/12/30 04:02:35;;;;;;;55.13;9.98;;;9.10;99.90;;;;;;5127707;27;37280;-64
2021/12/30 04:05:03;;;;;;;37.42;9.20;;;9.10;99.90;;;;;;5127841;27;37730;-64
2021/12/30 04:07:31;;;;;;;48.45;10.98;;;9.00;99.90;;;;;;5128610;27;37810;-64
2021/12/30 04:09:58;;;;;;;53.55;10.52;;;9.10;99.90;;;;;;5128390;27;36280;-64
2021/12/30 04:12:26;;;;;;;39.13;9.70;;;9.10;99.90;;;;;;5126759;27;37600;-64
2021/12/30 04:14:53;;;;;;;45.58;10.38;;;9.10;99.90;;;;;;5127479;27;37678;-64
2021/12/30 04:17:22;;;;;;;50.25;10.52;;;9.10;99.90;;;;;;5126957;27;36260;-64
2021/12/30 04:19:50;;;;;;;41.35;9.85;;;9.10;99.90;;;;;;5127172;27;37904;-65
2021/12/30 04:22:19;;;;;;;40.25;8.52;;;9.20;99.90;;;;;;5127464;27;38123;-64
2021/12/30 04:24:46;;;;;;;54.40;11.20;;;9.20;99.90;;;;;;5125690;27;38022;-64
2021/12/30 04:27:14;;;;;;;40.40;8.75;;;9.20;99.90;;;;;;5127981;27;37921;-64
2021/12/30 04:29:41;;;;;;;51.60;10.82;;;9.20;99.90;;;;;;5128374;27;37363;-64
2021/12/30 04:32:09;;;;;;;52.97;10.77;;;9.30;99.90;;;;;;5127753;27;35143;-64
2021/12/30 04:34:37;;;;;;;54.92;9.98;;;9.30;99.90;;;;;;5128286;27;37908;-64
2021/12/30 04:37:05;;;;;;;51.53;10.40;;;9.40;99.90;;;;;;5127884;27;38239;-65
2021/12/30 04:39:32;;;;;;;42.22;9.30;;;9.40;99.90;;;;;;5127960;27;38507;-65
2021/12/30 04:42:01;;;;;;;56.85;11.05;;;9.40;99.90;;;;;;5126860;27;37189;-64
2021/12/30 04:44:28;;;;;;;50.38;9.50;;;9.40;99.90;;;;;;5127251;27;37466;-65
2021/12/30 04:46:56;;;;;;;57.58;10.73;;;9.40;99.90;;;;;;5126899;27;37863;-64
2021/12/30 04:49:24;;;;;;;47.47;10.00;;;9.40;99.90;;;;;;5126982;27;37525;-65
2021/12/30 04:51:53;;;;;;;42.28;9.10;;;9.50;99.90;;;;;;5127588;27;38832;-65
2021/12/30 04:54:21;;;;;;;53.92;11.63;;;9.50;99.90;;;;;;5126458;27;37748;-65
2021/12/30 04:56:48;;;;;;;62.90;11.43;;;9.60;99.90;;;;;;5127156;27;38789;-65
2021/12/30 04:59:15;;;;;;;53.28;10.63;;;9.60;99.90;;;;;;5126907;27;36932;-65
2021/12/30 05:01:43;;;;;;;54.33;11.27;;;9.70;99.90;;;;;;5127441;27;36939;-64
2021/12/30 05:04:10;;;;;;;58.42;11.77;;;9.70;99.90;;;;;;5127418;27;37548;-64
2021/12/30 05:06:37;;;;;;;62.05;14.48;;;9.80;99.90;;;;;;5126373;27;37679;-65
2021/12/30 05:09:08;;;;;;;62.38;12.95;;;9.90;99.90;;;;;;5127263;27;37620;-65
2021/12/30 05:11:39;;;;;;;74.90;14.18;;;10.00;99.90;;;;;;5127693;27;36627;-65
2021/12/30 05:14:06;;;;;;;76.68;15.98;;;10.00;99.90;;;;;;5126666;27;36286;-65
2021/12/30 05:16:33;;;;;;;68.70;16.02;;;10.10;99.90;;;;;;5127017;27;38856;-64
2021/12/30 05:19:01;;;;;;;70.53;14.82;;;10.10;99.90;;;;;;5127444;27;37630;-65
2021/12/30 05:21:28;;;;;;;70.93;16.70;;;10.20;99.90;;;;;;5124314;27;36732;-64
2021/12/30 05:23:55;;;;;;;70.10;15.75;;;10.20;99.90;;;;;;5124469;27;37552;-65
2021/12/30 05:26:27;;;;;;;72.30;16.35;;;10.30;99.90;;;;;;5125255;27;38096;-65
2021/12/30 05:28:55;;;;;;;64.03;16.88;;;10.30;99.90;;;;;;5125070;27;39058;-65
2021/12/30 05:31:22;;;;;;;69.13;17.67;;;10.30;99.90;;;;;;5126217;27;35557;-65
2021/12/30 05:33:50;;;;;;;71.30;17.65;;;10.30;99.90;;;;;;5129595;27;38590;-64
2021/12/30 05:36:18;;;;;;;77.13;17.98;;;10.40;99.90;;;;;;5128602;27;38159;-64
2021/12/30 05:38:45;;;;;;;72.70;18.38;;;10.40;99.90;;;;;;5129253;27;37669;-64
2021/12/30 05:41:13;;;;;;;68.50;17.48;;;10.50;99.90;;;;;;5128670;27;36973;-64
2021/12/30 05:43:42;;;;;;;64.78;18.20;;;10.50;99.90;;;;;;5128966;27;39621;-65
2021/12/30 05:46:09;;;;;;;55.78;16.17;;;10.50;99.90;;;;;;5129231;27;37726;-65
2021/12/30 05:48:36;;;;;;;46.00;13.77;;;10.60;99.90;;;;;;5129522;27;37601;-65
2021/12/30 05:51:04;;;;;;;46.90;13.20;;;10.60;99.90;;;;;;5128112;27;36861;-65
2021/12/30 05:53:31;;;;;;;45.17;12.85;;;10.60;99.90;;;;;;5128644;27;37506;-64
2021/12/30 05:55:59;;;;;;;49.80;13.60;;;10.60;99.90;;;;;;5128788;27;37696;-64
2021/12/30 05:58:26;;;;;;;33.95;13.02;;;10.60;99.90;;;;;;5128677;27;37237;-64
2021/12/30 06:00:55;;;;;;;30.90;11.45;;;10.60;99.90;;;;;;5127994;27;36740;-65
2021/12/30 06:03:23;;;;;;;30.38;10.77;;;10.70;99.90;;;;;;5128512;27;37913;-64
2021/12/30 06:05:51;;;;;;;32.15;10.35;;;10.70;99.90;;;;;;5129336;27;37919;-64
2021/12/30 06:08:18;;;;;;;25.10;10.00;;;10.70;99.90;;;;;;5128968;27;37474;-65
2021/12/30 06:10:46;;;;;;;27.88;9.90;;;10.70;99.90;;;;;;5128796;27;35401;-64
2021/12/30 06:13:14;;;;;;;33.90;11.30;;;10.70;99.90;;;;;;5129730;27;37569;-64
2021/12/30 06:15:41;;;;;;;30.33;10.73;;;10.70;99.90;;;;;;5128512;27;37567;-65
2021/12/30 06:18:10;;;;;;;27.90;10.57;;;10.70;99.90;;;;;;5129036;27;36075;-65
2021/12/30 06:20:37;;;;;;;27.45;11.02;;;10.70;99.90;;;;;;5128508;27;35458;-65
2021/12/30 06:23:05;;;;;;;31.15;11.65;;;10.80;99.90;;;;;;5127551;27;37758;-65
2021/12/30 06:25:32;;;;;;;34.20;12.75;;;10.80;99.90;;;;;;5127902;27;37803;-65
2021/12/30 06:28:00;;;;;;;26.67;11.38;;;10.80;99.90;;;;;;5129377;27;37214;-65
2021/12/30 06:30:27;;;;;;;35.05;12.80;;;10.80;99.90;;;;;;5127794;27;38352;-65
2021/12/30 06:32:54;;;;;;;32.53;12.65;;;10.80;99.90;;;;;;5129515;27;37598;-65
2021/12/30 06:35:23;;;;;;;39.28;12.88;;;10.80;99.90;;;;;;5129376;27;36378;-65
2021/12/30 06:37:51;;;;;;;43.30;14.57;;;10.90;99.90;;;;;;5129747;27;37387;-65
2021/12/30 06:40:18;;;;;;;52.75;16.25;;;10.90;99.90;;;;;;5130372;27;40651;-65
2021/12/30 06:42:45;;;;;;;45.40;15.77;;;10.90;99.90;;;;;;5129042;27;38529;-65
2021/12/30 06:45:13;;;;;;;52.20;16.67;;;10.90;99.90;;;;;;5128875;27;36470;-65
2021/12/30 06:47:41;;;;;;;48.67;15.18;;;10.90;99.90;;;;;;5127940;27;37514;-65
2021/12/30 06:50:11;;;;;;;50.50;16.45;;;10.90;99.90;;;;;;5128038;27;37211;-65
2021/12/30 06:52:41;;;;;;;45.25;15.98;;;11.00;99.90;;;;;;5128896;27;38833;-65
2021/12/30 06:55:09;;;;;;;45.65;15.50;;;11.00;99.90;;;;;;5128404;27;37711;-65
2021/12/30 06:57:37;;;;;;;48.25;15.52;;;11.00;99.90;;;;;;5127653;27;37398;-65
2021/12/30 07:00:05;;;;;;;41.17;13.18;;;11.00;99.90;;;;;;5127514;27;36828;-65
2021/12/30 07:02:34;;;;;;;43.58;14.18;;;11.10;99.90;;;;;;5128057;27;37573;-65
2021/12/30 07:05:01;;;;;;;37.47;12.77;;;11.00;99.90;;;;;;5128157;27;38648;-65
2021/12/30 07:07:29;;;;;;;35.38;11.65;;;11.10;99.90;;;;;;5128526;27;36382;-65
2021/12/30 07:09:58;;;;;;;32.65;11.65;;;11.10;99.90;;;;;;5128548;27;38644;-65
2021/12/30 07:12:25;;;;;;;33.72;11.65;;;11.10;99.90;;;;;;5126818;27;39113;-65
2021/12/30 07:14:53;;;;;;;32.40;10.80;;;11.10;99.90;;;;;;5127651;27;37907;-65
2021/12/30 07:17:20;;;;;;;28.05;10.50;;;11.20;99.90;;;;;;5128891;27;37278;-65
2021/12/30 07:19:48;;;;;;;25.05;9.77;;;11.10;99.90;;;;;;5128002;27;36953;-65
2021/12/30 07:22:15;;;;;;;25.40;10.05;;;11.20;99.90;;;;;;5127991;27;38348;-65
2021/12/30 07:24:42;;;;;;;22.45;10.05;;;11.20;99.90;;;;;;5125548;27;39056;-65
2021/12/30 07:27:11;;;;;;;20.27;8.73;;;11.20;99.90;;;;;;5127203;27;37821;-66
2021/12/30 07:29:38;;;;;;;21.02;8.95;;;11.20;99.90;;;;;;5127439;27;36947;-66
2021/12/30 07:32:06;;;;;;;22.40;8.45;;;11.20;99.90;;;;;;5127895;27;37373;-65
2021/12/30 07:34:34;;;;;;;18.58;8.38;;;11.20;99.90;;;;;;5128244;27;36397;-65
2021/12/30 07:37:01;;;;;;;15.63;7.38;;;11.20;99.90;;;;;;5128297;27;40729;-65
2021/12/30 07:39:28;;;;;;;19.50;8.52;;;11.30;99.90;;;;;;5127659;27;36973;-65
2021/12/30 07:41:56;;;;;;;17.58;7.80;;;11.30;99.90;;;;;;5129057;27;36130;-65
2021/12/30 07:44:24;;;;;;;14.85;7.50;;;11.30;99.90;;;;;;5128637;27;38358;-65
2021/12/30 07:46:52;;;;;;;17.05;7.30;;;11.30;99.90;;;;;;5127963;27;37923;-65
2021/12/30 07:49:19;;;;;;;16.98;6.93;;;11.30;99.90;;;;;;5128036;27;37865;-65
2021/12/30 07:51:46;;;;;;;15.23;6.63;;;11.30;99.90;;;;;;5127449;27;36136;-66
2021/12/30 07:54:14;;;;;;;11.38;5.85;;;11.30;99.90;;;;;;5127158;27;38587;-66
2021/12/30 07:56:41;;;;;;;12.05;5.63;;;11.30;99.90;;;;;;5126816;27;37326;-65
2021/12/30 07:59:08;;;;;;;13.57;5.70;;;11.30;99.90;;;;;;5127041;27;36415;-65
2021/12/30 08:01:37;;;;;;;9.73;5.55;;;11.30;99.90;;;;;;5128315;27;38106;-65
2021/12/30 08:04:05;;;;;;;12.23;5.60;;;11.40;99.90;;;;;;5128645;27;38641;-65
2021/12/30 08:06:33;;;;;;;9.10;4.70;;;11.40;99.90;;;;;;5127845;27;37425;-66
2021/12/30 08:09:01;;;;;;;10.77;4.97;;;11.40;99.90;;;;;;5127088;27;37372;-66
2021/12/30 08:11:29;;;;;;;6.65;3.63;;;11.40;99.90;;;;;;5127021;27;37315;-66
2021/12/30 08:13:56;;;;;;;9.57;4.15;;;11.40;99.90;;;;;;5127246;27;36870;-66
2021/12/30 08:16:23;;;;;;;8.40;3.88;;;11.40;99.90;;;;;;5128702;27;39675;-63
2021/12/30 08:18:52;;;;;;;7.63;3.45;;;11.50;99.90;;;;;;5127242;27;35176;-65
2021/12/30 08:21:20;;;;;;;8.32;3.33;;;11.50;99.90;;;;;;5128231;27;36317;-66
2021/12/30 08:23:48;;;;;;;5.85;3.70;;;11.50;99.90;;;;;;5127585;27;37694;-66
2021/12/30 08:26:15;;;;;;;6.45;3.28;;;11.50;99.90;;;;;;5126959;27;37551;-66
2021/12/30 08:28:43;;;;;;;6.13;3.03;;;11.50;99.90;;;;;;5126415;27;37005;-66
2021/12/30 08:31:10;;;;;;;6.57;3.22;;;11.50;99.90;;;;;;5127153;27;36224;-66
2021/12/30 08:33:38;;;;;;;6.38;3.50;;;11.50;99.90;;;;;;5126369;27;37952;-67
2021/12/30 08:36:07;;;;;;;8.13;3.65;;;11.50;99.90;;;;;;5127924;27;37376;-66
2021/12/30 08:38:35;;;;;;;9.05;4.65;;;11.60;99.90;;;;;;5128421;27;36317;-66
2021/12/30 08:41:02;;;;;;;11.25;4.38;;;11.60;99.90;;;;;;5128432;27;37628;-66
2021/12/30 08:43:29;;;;;;;13.45;5.63;;;11.60;99.90;;;;;;5128065;27;36296;-66
2021/12/30 08:45:57;;;;;;;15.55;6.28;;;11.60;99.90;;;;;;5128956;27;38776;-67
2021/12/30 08:48:24;;;;;;;15.68;5.95;;;11.60;99.90;;;;;;5127842;27;36677;-66
2021/12/30 08:50:51;;;;;;;18.08;6.72;;;11.60;99.90;;;;;;5127023;27;39244;-66
2021/12/30 08:53:22;;;;;;;15.32;6.32;;;11.60;99.90;;;;;;5127336;27;37839;-66
2021/12/30 08:55:49;;;;;;;12.95;5.57;;;11.60;99.90;;;;;;5128328;27;36149;-66
2021/12/30 08:58:16;;;;;;;13.35;5.60;;;11.70;99.90;;;;;;5127805;27;36737;-66
2021/12/30 09:00:46;;;;;;;12.50;5.03;;;11.70;99.90;;;;;;5126965;27;37513;-66
2021/12/30 09:03:14;;;;;;;17.10;6.22;;;11.70;99.90;;;;;;5127339;27;39563;-66
2021/12/30 09:05:42;;;;;;;12.98;5.38;;;11.80;99.90;;;;;;5127231;27;37875;-67
2021/12/30 09:08:10;;;;;;;15.50;4.97;;;11.70;99.90;;;;;;5130994;27;37204;-67
2021/12/30 09:10:40;;;;;;;17.08;4.68;;;11.70;99.90;;;;;;5131100;27;37590;-66
2021/12/30 09:13:08;;;;;;;16.90;4.55;;;11.70;99.90;;;;;;5131518;27;40943;-67
2021/12/30 09:15:36;;;;;;;20.27;5.28;;;11.70;99.90;;;;;;5131330;27;38603;-66
2021/12/30 09:18:05;;;;;;;15.52;5.38;;;11.70;99.90;;;;;;5131414;27;37426;-66
2021/12/30 09:20:33;;;;;;;13.65;4.97;;;11.70;99.90;;;;;;5132022;27;38510;-67
2021/12/30 09:23:03;;;;;;;17.02;5.32;;;11.70;99.90;;;;;;5131108;27;38808;-67
2021/12/30 09:25:31;;;;;;;17.33;5.38;;;11.70;99.90;;;;;;5130799;27;36299;-67
2021/12/30 09:28:00;;;;;;;17.20;5.25;;;11.70;99.90;;;;;;5128928;27;35149;-67
2021/12/30 09:30:28;;;;;;;19.48;4.28;;;11.70;99.90;;;;;;5128021;27;36425;-66
2021/12/30 09:32:58;;;;;;;20.88;5.03;;;11.70;99.90;;;;;;5129172;27;36252;-67
2021/12/30 09:35:26;;;;;;;20.45;4.47;;;11.70;99.90;;;;;;5129942;27;37294;-67
2021/12/30 09:37:53;;;;;;;22.33;6.15;;;11.70;99.90;;;;;;5129789;27;36419;-66
2021/12/30 09:40:22;;;;;;;17.52;5.13;;;11.70;99.90;;;;;;5124338;27;39110;-66
2021/12/30 09:42:54;;;;;;;20.73;5.35;;;11.70;99.90;;;;;;5124713;27;39819;-66
2021/12/30 09:45:23;;;;;;;15.75;4.93;;;11.70;99.90;;;;;;5124808;27;37268;-66
2021/12/30 09:47:52;;;;;;;22.05;5.28;;;11.70;99.90;;;;;;5124822;27;36474;-66
2021/12/30 09:50:22;;;;;;;20.00;5.47;;;11.80;99.90;;;;;;5124329;27;38229;-66
2021/12/30 09:52:50;;;;;;;23.00;6.13;;;11.80;99.90;;;;;;5125252;27;36362;-66
2021/12/30 09:55:18;;;;;;;30.13;6.00;;;11.80;99.90;;;;;;5125792;27;38357;-66
2021/12/30 09:57:46;;;;;;;17.15;5.32;;;11.80;99.90;;;;;;5124313;27;36524;-67
2021/12/30 10:00:15;;;;;;;17.15;5.18;;;11.80;99.90;;;;;;5125344;27;37669;-67
2021/12/30 10:02:45;;;;;;;25.90;6.05;;;11.80;99.90;;;;;;5126343;27;37818;-66
2021/12/30 10:05:15;;;;;;;30.45;6.65;;;11.80;99.90;;;;;;5126043;27;38185;-66
2021/12/30 10:07:43;;;;;;;33.15;6.78;;;11.80;99.90;;;;;;5126230;27;36829;-66
2021/12/30 10:10:30;;;;;;;23.17;5.85;;;11.80;99.90;;;;;;5126879;27;38108;-66
2021/12/30 10:13:01;;;;;;;24.08;5.63;;;11.80;99.90;;;;;;5124829;27;38085;-66
2021/12/30 10:15:40;;;;;;;18.33;4.38;;;11.80;99.90;;;;;;5126329;27;37569;-66
2021/12/30 10:18:09;;;;;;;28.40;6.25;;;11.90;99.90;;;;;;5123259;27;36199;-67
2021/12/30 10:20:39;;;;;;;32.30;5.22;;;11.80;99.90;;;;;;5125795;27;36065;-66
2021/12/30 10:23:12;;;;;;;19.45;4.93;;;11.90;99.90;;;;;;5126621;27;39134;-66
2021/12/30 10:25:42;;;;;;;24.15;4.85;;;11.90;99.90;;;;;;5125991;27;38080;-66
2021/12/30 10:28:28;;;;;;;25.45;5.75;;;11.90;99.90;;;;;;5125812;27;36778;-66
2021/12/30 10:30:59;;;;;;;22.48;4.68;;;11.90;99.90;;;;;;5126156;27;37590;-66
2021/12/30 10:33:29;;;;;;;21.35;4.70;;;11.90;99.90;;;;;;5126100;27;36371;-66
2021/12/30 10:35:58;;;;;;;20.67;4.20;;;11.90;99.90;;;;;;5126530;27;37382;-66
2021/12/30 10:38:29;;;;;;;28.17;5.70;;;11.90;99.90;;;;;;5125987;27;36645;-66
2021/12/30 10:41:02;;;;;;;26.00;4.97;;;11.90;99.90;;;;;;5124604;27;37560;-66
2021/12/30 10:43:35;;;;;;;27.95;5.57;;;11.90;99.90;;;;;;5125922;27;37444;-67
2021/12/30 10:46:11;;;;;;;24.45;5.57;;;11.90;99.90;;;;;;5125163;27;37548;-66
2021/12/30 10:49:02;;;;;;;36.67;5.90;;;11.90;99.90;;;;;;5125696;27;35144;-67
2021/12/30 10:51:35;;;;;;;33.00;7.95;;;11.90;99.90;;;;;;5125658;27;36656;-67
2021/12/30 10:54:09;;;;;;;;;;;11.90;99.90;;;;;;5126693;27;39051;-66
2021/12/30 10:56:39;;;;;;;26.13;5.05;;;11.90;99.90;;;;;;5124597;27;37424;-66
2021/12/30 10:59:16;;;;;;;27.83;5.13;;;11.80;99.90;;;;;;5124583;27;37481;-66
2021/12/30 11:01:46;;;;;;;33.13;6.03;;;11.70;99.90;;;;;;5121074;27;37401;-66
2021/12/30 11:04:16;;;;;;;32.05;5.72;;;11.90;99.90;;;;;;5122032;27;37812;-67
2021/12/30 11:06:44;;;;;;;28.63;6.13;;;11.90;99.90;;;;;;5122195;27;36206;-66
2021/12/30 11:09:14;;;;;;;33.95;5.97;;;11.90;99.90;;;;;;5121186;27;36715;-66
2021/12/30 11:11:45;;;;;;;36.38;7.35;;;11.90;99.90;;;;;;5120158;27;37521;-66
2021/12/30 11:14:14;;;;;;;27.85;6.53;;;11.90;99.90;;;;;;5119659;27;36372;-66
2021/12/30 11:16:58;;;;;;;32.72;6.60;;;11.90;99.90;;;;;;5121070;27;36258;-66
2021/12/30 11:19:28;;;;;;;40.72;7.30;;;11.90;99.90;;;;;;5120556;27;37912;-65
2021/12/30 11:21:57;;;;;;;33.33;6.55;;;11.90;99.90;;;;;;5121324;27;36131;-66
2021/12/30 11:24:26;;;;;;;41.20;7.50;;;11.90;99.90;;;;;;5119153;27;39363;-66
2021/12/30 11:26:54;;;;;;;35.17;7.25;;;11.90;99.90;;;;;;5120509;27;37431;-66
2021/12/30 11:29:23;;;;;;;39.70;7.38;;;11.90;99.90;;;;;;5119944;27;36439;-66
2021/12/30 11:31:51;;;;;;;37.95;6.90;;;12.00;99.90;;;;;;5118398;27;37393;-66
2021/12/30 11:34:20;;;;;;;40.10;7.95;;;12.00;99.90;;;;;;5119196;27;37763;-66
2021/12/30 11:36:48;;;;;;;45.38;8.63;;;11.90;99.90;;;;;;5121458;27;38199;-66
2021/12/30 11:39:18;;;;;;;48.10;9.23;;;11.90;99.90;;;;;;5121671;27;36924;-66
2021/12/30 11:41:56;;;;;;;47.80;9.35;;;12.00;99.90;;;;;;5121772;27;37590;-66
2021/12/30 11:44:39;;;;;;;46.22;8.82;;;12.00;99.90;;;;;;5122621;27;38636;-67
2021/12/30 11:47:08;;;;;;;43.07;8.17;;;12.00;99.90;;;;;;5123133;27;37150;-66
2021/12/30 11:49:56;;;;;;;36.90;7.47;;;12.00;99.90;;;;;;5119900;27;36651;-66
2021/12/30 11:52:51;;;;;;;35.60;7.00;;;12.00;99.90;;;;;;5119102;27;37025;-66
2021/12/30 11:55:36;;;;;;;;;;;12.00;99.90;;;;;;5112081;27;38052;-66
2021/12/30 11:58:36;;;;;;;46.78;7.53;;;12.00;99.90;;;;;;5122606;27;37677;-66
2021/12/30 12:01:27;;;;;;;44.90;7.25;;;12.00;99.90;;;;;;5122610;27;36120;-66
2021/12/30 12:03:58;;;;;;;40.30;8.60;;;12.00;99.90;;;;;;5120852;27;36267;-66
2021/12/30 12:06:31;;;;;;;46.60;7.50;;;11.90;99.90;;;;;;5120948;27;37686;-66
2021/12/30 12:09:02;;;;;;;41.13;6.88;;;12.00;99.90;;;;;;5121315;27;39719;-66
2021/12/30 12:11:31;;;;;;;36.58;7.47;;;12.00;99.90;;;;;;5121831;27;38299;-65
2021/12/30 12:14:14;;;;;;;41.50;7.93;;;12.10;99.90;;;;;;5118021;27;39111;-65
2021/12/30 12:16:48;;;;;;;38.17;7.25;;;12.10;99.90;;;;;;5120310;27;36521;-65
2021/12/30 12:19:16;;;;;;;40.55;6.72;;;12.10;99.90;;;;;;5121140;27;37063;-66
2021/12/30 12:21:45;;;;;;;37.40;7.28;;;12.10;99.90;;;;;;5120441;27;35310;-65
2021/12/30 12:24:42;;;;;;;41.85;6.47;;;12.20;99.90;;;;;;5121042;27;38127;-65
2021/12/30 12:27:29;;;;;;;31.50;6.18;;;12.20;99.90;;;;;;5119506;27;38365;-66
2021/12/30 12:29:57;;;;;;;43.92;7.38;;;12.20;99.90;;;;;;5120859;27;37486;-65
2021/12/30 12:32:37;;;;;;;31.55;6.07;;;12.20;99.90;;;;;;5120314;27;37916;-65
2021/12/30 12:35:06;;;;;;;40.63;6.90;;;12.20;99.90;;;;;;5120235;27;37871;-65
2021/12/30 12:37:54;;;;;;;36.45;6.70;;;12.20;99.90;;;;;;5118158;27;38358;-65
2021/12/30 12:40:29;;;;;;;41.33;6.88;;;12.20;99.90;;;;;;5120105;27;37331;-65
2021/12/30 12:43:07;;;;;;;35.97;6.25;;;12.30;99.90;;;;;;5120072;27;36304;-65
2021/12/30 12:45:36;;;;;;;35.45;6.95;;;12.20;99.90;;;;;;5120370;27;39992;-65
2021/12/30 12:48:27;;;;;;;35.72;6.90;;;12.30;99.90;;;;;;5119520;27;38750;-65
2021/12/30 12:50:57;;;;;;;36.42;8.23;;;12.30;99.90;;;;;;5120040;27;37458;-65
2021/12/30 12:54:01;;;;;;;39.13;7.82;;;12.30;99.90;;;;;;5120642;27;36507;-65